sensor_id;sensor_type;location;lat;lon;timestamp;pressure;altitude;pressure_sealevel;temperature;humidity
6343;BME280;3204;42.698;23.298;2023-01-30T00:00:18;95206.50;;;1.62;80.35
6343;BME280;3204;42.698;23.298;2023-01-30T00:02:43;95191.56;;;1.66;80.24
6343;BME280;3204;42.698;23.298;2023-01-30T00:05:09;95197.91;;;1.60;80.59
6343;BME280;3204;42.698;23.298;2023-01-30T00:07:34;95191.28;;;1.62;80.25
6343;BME280;3204;42.698;23.298;2023-01-30T00:10:00;95191.38;;;1.51;80.41
6343;BME280;3204;42.698;23.298;2023-01-30T00:12:25;95192.56;;;1.60;81.04
6343;BME280;3204;42.698;23.298;2023-01-30T00:14:51;95186.41;;;1.59;80.47
6343;BME280;3204;42.698;23.298;2023-01-30T00:17:16;95194.97;;;1.61;80.48
6343;BME280;3204;42.698;23.298;2023-01-30T00:19:41;95195.91;;;1.50;81.00
6343;BME280;3204;42.698;23.298;2023-01-30T00:22:07;95194.06;;;1.51;80.23
6343;BME280;3204;42.698;23.298;2023-01-30T00:24:32;95197.91;;;1.60;80.49
6343;BME280;3204;42.698;23.298;2023-01-30T00:26:58;95190.75;;;1.65;79.96
6343;BME280;3204;42.698;23.298;2023-01-30T00:29:24;95191.09;;;1.69;80.47
6343;BME280;3204;42.698;23.298;2023-01-30T00:31:49;95197.00;;;1.71;80.14
6343;BME280;3204;42.698;23.298;2023-01-30T00:34:14;95196.66;;;1.46;80.32
6343;BME280;3204;42.698;23.298;2023-01-30T00:36:40;95187.75;;;1.40;80.58
6343;BME280;3204;42.698;23.298;2023-01-30T00:39:05;95186.84;;;1.35;80.95
6343;BME280;3204;42.698;23.298;2023-01-30T00:41:31;95189.06;;;1.38;81.05
6343;BME280;3204;42.698;23.298;2023-01-30T00:44:16;95184.69;;;1.32;80.31
6343;BME280;3204;42.698;23.298;2023-01-30T00:47:02;95181.81;;;1.17;81.51
6343;BME280;3204;42.698;23.298;2023-01-30T00:49:31;95170.38;;;1.21;81.03
6343;BME280;3204;42.698;23.298;2023-01-30T00:51:57;95167.53;;;1.28;80.52
6343;BME280;3204;42.698;23.298;2023-01-30T00:54:22;95174.97;;;1.26;81.11
6343;BME280;3204;42.698;23.298;2023-01-30T00:56:48;95167.84;;;1.31;81.36
6343;BME280;3204;42.698;23.298;2023-01-30T00:59:13;95173.56;;;1.40;81.02
6343;BME280;3204;42.698;23.298;2023-01-30T01:01:39;95170.97;;;1.45;80.79
6343;BME280;3204;42.698;23.298;2023-01-30T01:04:05;95169.53;;;1.37;80.31
6343;BME280;3204;42.698;23.298;2023-01-30T01:06:31;95167.06;;;1.31;81.28
6343;BME280;3204;42.698;23.298;2023-01-30T01:08:57;95165.88;;;1.22;81.54
6343;BME280;3204;42.698;23.298;2023-01-30T01:11:22;95175.66;;;1.16;81.29
6343;BME280;3204;42.698;23.298;2023-01-30T01:13:52;95170.16;;;1.06;81.87
6343;BME280;3204;42.698;23.298;2023-01-30T01:16:18;95160.03;;;1.08;82.05
6343;BME280;3204;42.698;23.298;2023-01-30T01:18:44;95162.72;;;1.08;81.94
6343;BME280;3204;42.698;23.298;2023-01-30T01:21:10;95157.88;;;1.05;82.66
6343;BME280;3204;42.698;23.298;2023-01-30T01:23:35;95156.13;;;1.16;81.73
6343;BME280;3204;42.698;23.298;2023-01-30T01:26:01;95155.41;;;1.20;82.33
6343;BME280;3204;42.698;23.298;2023-01-30T01:28:26;95152.56;;;1.27;82.28
6343;BME280;3204;42.698;23.298;2023-01-30T01:30:52;95148.84;;;1.28;81.17
6343;BME280;3204;42.698;23.298;2023-01-30T01:33:17;95145.19;;;1.34;80.87
6343;BME280;3204;42.698;23.298;2023-01-30T01:35:43;95144.69;;;1.37;80.13
6343;BME280;3204;42.698;23.298;2023-01-30T01:38:08;95141.50;;;1.18;80.78
6343;BME280;3204;42.698;23.298;2023-01-30T01:40:34;95142.38;;;1.24;80.93
6343;BME280;3204;42.698;23.298;2023-01-30T01:43:21;95149.13;;;1.10;81.41
6343;BME280;3204;42.698;23.298;2023-01-30T01:45:50;95146.84;;;1.02;82.21
6343;BME280;3204;42.698;23.298;2023-01-30T01:48:29;95148.81;;;1.06;82.10
6343;BME280;3204;42.698;23.298;2023-01-30T01:50:59;95149.59;;;1.07;81.81
6343;BME280;3204;42.698;23.298;2023-01-30T01:53:32;95141.34;;;1.08;81.64
6343;BME280;3204;42.698;23.298;2023-01-30T01:55:59;95143.31;;;1.13;82.01
6343;BME280;3204;42.698;23.298;2023-01-30T02:00:53;95152.84;;;1.09;81.82
6343;BME280;3204;42.698;23.298;2023-01-30T02:03:23;95145.91;;;1.08;81.11
6343;BME280;3204;42.698;23.298;2023-01-30T02:05:51;95151.25;;;1.08;81.13
6343;BME280;3204;42.698;23.298;2023-01-30T02:08:23;95149.53;;;1.02;81.87
6343;BME280;3204;42.698;23.298;2023-01-30T02:13:45;95145.56;;;1.04;81.58
6343;BME280;3204;42.698;23.298;2023-01-30T02:16:11;95142.50;;;0.96;81.35
6343;BME280;3204;42.698;23.298;2023-01-30T02:18:39;95142.44;;;0.91;81.67
6343;BME280;3204;42.698;23.298;2023-01-30T02:24:43;95143.63;;;1.00;81.65
6343;BME280;3204;42.698;23.298;2023-01-30T02:27:19;95142.44;;;0.91;82.32
6343;BME280;3204;42.698;23.298;2023-01-30T02:30:19;95147.78;;;0.91;81.80
6343;BME280;3204;42.698;23.298;2023-01-30T02:36:03;95151.91;;;0.82;81.72
6343;BME280;3204;42.698;23.298;2023-01-30T02:41:29;95132.16;;;0.82;82.61
6343;BME280;3204;42.698;23.298;2023-01-30T02:44:04;95132.72;;;0.85;82.27
6343;BME280;3204;42.698;23.298;2023-01-30T02:46:36;95128.03;;;0.75;82.35
6343;BME280;3204;42.698;23.298;2023-01-30T02:49:12;95130.53;;;0.82;82.52
6343;BME280;3204;42.698;23.298;2023-01-30T02:51:40;95128.94;;;0.81;82.17
6343;BME280;3204;42.698;23.298;2023-01-30T02:54:09;95126.19;;;0.76;82.46
6343;BME280;3204;42.698;23.298;2023-01-30T02:56:51;95137.75;;;0.81;82.02
6343;BME280;3204;42.698;23.298;2023-01-30T02:59:21;95135.72;;;0.72;82.31
6343;BME280;3204;42.698;23.298;2023-01-30T03:07:48;95138.94;;;0.90;81.43
6343;BME280;3204;42.698;23.298;2023-01-30T03:13:13;95125.34;;;0.92;81.96
6343;BME280;3204;42.698;23.298;2023-01-30T03:18:18;95123.09;;;1.00;82.13
6343;BME280;3204;42.698;23.298;2023-01-30T03:20:44;95123.88;;;1.01;81.09
6343;BME280;3204;42.698;23.298;2023-01-30T03:23:10;95117.00;;;1.05;81.48
6343;BME280;3204;42.698;23.298;2023-01-30T03:25:37;95108.44;;;1.03;81.50
6343;BME280;3204;42.698;23.298;2023-01-30T03:28:04;95104.47;;;1.05;81.21
6343;BME280;3204;42.698;23.298;2023-01-30T03:30:31;95105.41;;;1.16;81.10
6343;BME280;3204;42.698;23.298;2023-01-30T03:32:57;95107.03;;;1.17;81.48
6343;BME280;3204;42.698;23.298;2023-01-30T03:35:23;95107.84;;;1.17;80.87
6343;BME280;3204;42.698;23.298;2023-01-30T03:37:48;95091.44;;;1.09;81.11
6343;BME280;3204;42.698;23.298;2023-01-30T03:40:15;95103.78;;;1.15;80.74
6343;BME280;3204;42.698;23.298;2023-01-30T03:42:41;95094.78;;;1.21;80.69
6343;BME280;3204;42.698;23.298;2023-01-30T03:45:08;95095.38;;;1.23;80.73
6343;BME280;3204;42.698;23.298;2023-01-30T03:47:34;95091.81;;;1.17;80.54
6343;BME280;3204;42.698;23.298;2023-01-30T03:49:59;95088.84;;;1.14;80.25
6343;BME280;3204;42.698;23.298;2023-01-30T03:52:25;95094.41;;;1.12;80.34
6343;BME280;3204;42.698;23.298;2023-01-30T03:54:50;95089.72;;;1.19;80.31
6343;BME280;3204;42.698;23.298;2023-01-30T03:57:16;95088.34;;;1.17;80.01
6343;BME280;3204;42.698;23.298;2023-01-30T03:59:42;95091.16;;;1.27;79.85
6343;BME280;3204;42.698;23.298;2023-01-30T04:02:07;95092.63;;;1.18;79.82
6343;BME280;3204;42.698;23.298;2023-01-30T04:04:33;95083.25;;;1.15;80.23
6343;BME280;3204;42.698;23.298;2023-01-30T04:06:59;95089.56;;;1.09;79.84
6343;BME280;3204;42.698;23.298;2023-01-30T04:09:24;95073.94;;;1.18;80.27
6343;BME280;3204;42.698;23.298;2023-01-30T04:11:50;95085.22;;;1.25;80.57
6343;BME280;3204;42.698;23.298;2023-01-30T04:14:15;95078.22;;;1.19;78.83
6343;BME280;3204;42.698;23.298;2023-01-30T04:16:41;95085.34;;;1.13;79.51
6343;BME280;3204;42.698;23.298;2023-01-30T04:19:06;95096.03;;;1.13;79.54
6343;BME280;3204;42.698;23.298;2023-01-30T04:21:32;95094.41;;;1.12;79.46
6343;BME280;3204;42.698;23.298;2023-01-30T04:23:58;95082.47;;;0.98;80.74
6343;BME280;3204;42.698;23.298;2023-01-30T04:26:23;95092.84;;;0.95;80.53
6343;BME280;3204;42.698;23.298;2023-01-30T04:28:48;95087.56;;;1.00;81.17
6343;BME280;3204;42.698;23.298;2023-01-30T04:31:14;95086.13;;;0.92;80.93
6343;BME280;3204;42.698;23.298;2023-01-30T04:33:40;95087.81;;;0.98;80.70
6343;BME280;3204;42.698;23.298;2023-01-30T04:36:07;95083.84;;;1.01;80.25
6343;BME280;3204;42.698;23.298;2023-01-30T04:38:33;95081.03;;;0.91;80.47
6343;BME280;3204;42.698;23.298;2023-01-30T04:40:59;95073.44;;;0.82;81.07
6343;BME280;3204;42.698;23.298;2023-01-30T04:43:26;95071.78;;;0.98;81.60
6343;BME280;3204;42.698;23.298;2023-01-30T04:45:52;95075.88;;;0.84;81.65
6343;BME280;3204;42.698;23.298;2023-01-30T04:48:18;95068.91;;;0.83;81.79
6343;BME280;3204;42.698;23.298;2023-01-30T04:50:47;95072.53;;;0.94;81.75
6343;BME280;3204;42.698;23.298;2023-01-30T04:53:13;95067.06;;;0.84;81.77
6343;BME280;3204;42.698;23.298;2023-01-30T04:55:38;95063.41;;;0.90;81.71
6343;BME280;3204;42.698;23.298;2023-01-30T04:58:04;95058.13;;;0.95;81.98
6343;BME280;3204;42.698;23.298;2023-01-30T05:00:29;95056.28;;;0.95;81.55
6343;BME280;3204;42.698;23.298;2023-01-30T05:02:55;95063.97;;;0.92;82.30
6343;BME280;3204;42.698;23.298;2023-01-30T05:05:22;95048.69;;;0.87;81.70
6343;BME280;3204;42.698;23.298;2023-01-30T05:07:47;95060.66;;;0.85;82.44
6343;BME280;3204;42.698;23.298;2023-01-30T05:10:13;95049.72;;;1.03;81.71
6343;BME280;3204;42.698;23.298;2023-01-30T05:12:39;95057.72;;;1.03;82.01
6343;BME280;3204;42.698;23.298;2023-01-30T05:15:05;95053.34;;;0.97;82.10
6343;BME280;3204;42.698;23.298;2023-01-30T05:17:31;95054.66;;;0.94;82.14
6343;BME280;3204;42.698;23.298;2023-01-30T05:19:57;95053.84;;;0.94;82.80
6343;BME280;3204;42.698;23.298;2023-01-30T05:22:23;95063.84;;;1.03;83.35
6343;BME280;3204;42.698;23.298;2023-01-30T05:24:48;95061.63;;;1.17;81.77
6343;BME280;3204;42.698;23.298;2023-01-30T05:27:14;95061.06;;;1.15;82.19
6343;BME280;3204;42.698;23.298;2023-01-30T05:29:40;95064.91;;;1.02;82.30
6343;BME280;3204;42.698;23.298;2023-01-30T05:32:05;95075.34;;;1.04;82.54
6343;BME280;3204;42.698;23.298;2023-01-30T05:34:31;95064.09;;;1.02;82.99
6343;BME280;3204;42.698;23.298;2023-01-30T05:36:56;95067.66;;;1.07;82.92
6343;BME280;3204;42.698;23.298;2023-01-30T05:39:22;95069.19;;;1.03;81.97
6343;BME280;3204;42.698;23.298;2023-01-30T05:41:47;95067.53;;;1.19;81.67
6343;BME280;3204;42.698;23.298;2023-01-30T05:44:13;95062.19;;;0.97;82.32
6343;BME280;3204;42.698;23.298;2023-01-30T05:46:38;95071.25;;;0.96;82.44
6343;BME280;3204;42.698;23.298;2023-01-30T05:49:04;95073.44;;;0.82;83.33
6343;BME280;3204;42.698;23.298;2023-01-30T05:51:31;95072.41;;;0.84;83.40
6343;BME280;3204;42.698;23.298;2023-01-30T05:53:57;95070.53;;;0.84;83.82
6343;BME280;3204;42.698;23.298;2023-01-30T05:56:22;95074.69;;;0.97;84.06
6343;BME280;3204;42.698;23.298;2023-01-30T05:58:55;95082.22;;;1.00;83.61
6343;BME280;3204;42.698;23.298;2023-01-30T06:01:21;95076.06;;;0.99;83.77
6343;BME280;3204;42.698;23.298;2023-01-30T06:03:47;95078.50;;;1.01;83.28
6343;BME280;3204;42.698;23.298;2023-01-30T06:06:12;95078.25;;;1.02;84.04
6343;BME280;3204;42.698;23.298;2023-01-30T06:08:38;95078.69;;;1.16;83.66
6343;BME280;3204;42.698;23.298;2023-01-30T06:11:06;95081.31;;;1.11;83.22
6343;BME280;3204;42.698;23.298;2023-01-30T06:13:32;95075.81;;;1.01;83.80
6343;BME280;3204;42.698;23.298;2023-01-30T06:15:58;95075.16;;;0.89;84.26
6343;BME280;3204;42.698;23.298;2023-01-30T06:18:24;95073.59;;;0.93;84.87
6343;BME280;3204;42.698;23.298;2023-01-30T06:20:50;95070.50;;;1.01;84.08
6343;BME280;3204;42.698;23.298;2023-01-30T06:23:16;95068.94;;;1.05;84.13
6343;BME280;3204;42.698;23.298;2023-01-30T06:25:43;95068.56;;;0.96;84.84
6343;BME280;3204;42.698;23.298;2023-01-30T06:28:09;95071.06;;;1.03;83.80
6343;BME280;3204;42.698;23.298;2023-01-30T06:30:34;95069.50;;;1.07;84.72
6343;BME280;3204;42.698;23.298;2023-01-30T06:33:00;95066.03;;;1.06;84.19
6343;BME280;3204;42.698;23.298;2023-01-30T06:35:25;95058.81;;;1.07;84.15
6343;BME280;3204;42.698;23.298;2023-01-30T06:37:51;95058.16;;;1.16;84.35
6343;BME280;3204;42.698;23.298;2023-01-30T06:40:16;95072.06;;;1.18;83.80
6343;BME280;3204;42.698;23.298;2023-01-30T06:42:46;95067.28;;;1.20;83.58
6343;BME280;3204;42.698;23.298;2023-01-30T06:45:16;95072.69;;;1.25;83.62
6343;BME280;3204;42.698;23.298;2023-01-30T06:47:49;95075.44;;;1.30;83.47
6343;BME280;3204;42.698;23.298;2023-01-30T06:50:15;95070.97;;;1.14;83.61
6343;BME280;3204;42.698;23.298;2023-01-30T06:52:43;95074.94;;;1.12;84.56
6343;BME280;3204;42.698;23.298;2023-01-30T06:55:10;95080.56;;;1.15;84.13
6343;BME280;3204;42.698;23.298;2023-01-30T06:57:37;95079.09;;;1.24;83.81
6343;BME280;3204;42.698;23.298;2023-01-30T07:00:08;95076.03;;;1.16;83.83
6343;BME280;3204;42.698;23.298;2023-01-30T07:02:34;95076.97;;;1.05;83.69
6343;BME280;3204;42.698;23.298;2023-01-30T07:05:01;95078.09;;;1.09;83.84
6343;BME280;3204;42.698;23.298;2023-01-30T07:07:28;95083.84;;;1.22;84.51
6343;BME280;3204;42.698;23.298;2023-01-30T07:09:53;95085.41;;;1.18;83.90
6343;BME280;3204;42.698;23.298;2023-01-30T07:12:19;95084.97;;;1.26;84.05
6343;BME280;3204;42.698;23.298;2023-01-30T07:14:44;95088.66;;;1.20;83.81
6343;BME280;3204;42.698;23.298;2023-01-30T07:17:10;95081.50;;;1.26;84.59
6343;BME280;3204;42.698;23.298;2023-01-30T07:19:36;95080.34;;;1.17;83.99
6343;BME280;3204;42.698;23.298;2023-01-30T07:22:03;95087.03;;;1.19;84.20
6343;BME280;3204;42.698;23.298;2023-01-30T07:24:28;95084.09;;;1.21;83.96
6343;BME280;3204;42.698;23.298;2023-01-30T07:26:54;95084.25;;;1.31;82.90
6343;BME280;3204;42.698;23.298;2023-01-30T07:29:19;95086.47;;;1.39;83.32
6343;BME280;3204;42.698;23.298;2023-01-30T07:31:45;95089.78;;;1.24;83.40
6343;BME280;3204;42.698;23.298;2023-01-30T07:34:10;95097.28;;;1.27;83.75
6343;BME280;3204;42.698;23.298;2023-01-30T07:36:35;95099.16;;;1.27;83.61
6343;BME280;3204;42.698;23.298;2023-01-30T07:39:02;95095.72;;;1.31;84.02
6343;BME280;3204;42.698;23.298;2023-01-30T07:41:28;95106.41;;;1.31;82.90
6343;BME280;3204;42.698;23.298;2023-01-30T07:43:53;95113.88;;;1.29;82.65
6343;BME280;3204;42.698;23.298;2023-01-30T07:46:19;95105.69;;;1.36;83.42
6343;BME280;3204;42.698;23.298;2023-01-30T07:48:44;95100.53;;;1.29;83.08
6343;BME280;3204;42.698;23.298;2023-01-30T07:51:10;95098.78;;;1.40;83.16
6343;BME280;3204;42.698;23.298;2023-01-30T07:53:35;95098.66;;;1.51;81.21
6343;BME280;3204;42.698;23.298;2023-01-30T07:56:08;95091.63;;;1.45;81.69
6343;BME280;3204;42.698;23.298;2023-01-30T07:58:34;95084.88;;;1.38;83.22
6343;BME280;3204;42.698;23.298;2023-01-30T08:00:59;95078.75;;;1.42;82.70
6343;BME280;3204;42.698;23.298;2023-01-30T08:03:25;95077.44;;;1.45;83.11
6343;BME280;3204;42.698;23.298;2023-01-30T08:05:51;95076.03;;;1.59;82.54
6343;BME280;3204;42.698;23.298;2023-01-30T08:08:18;95075.47;;;1.57;81.47
6343;BME280;3204;42.698;23.298;2023-01-30T08:10:43;95074.66;;;1.56;82.27
6343;BME280;3204;42.698;23.298;2023-01-30T08:13:09;95076.06;;;1.64;80.86
6343;BME280;3204;42.698;23.298;2023-01-30T08:15:35;95075.34;;;1.68;81.48
6343;BME280;3204;42.698;23.298;2023-01-30T08:18:00;95078.25;;;1.67;81.26
6343;BME280;3204;42.698;23.298;2023-01-30T08:20:27;95074.47;;;1.63;82.04
6343;BME280;3204;42.698;23.298;2023-01-30T08:22:52;95070.94;;;1.57;81.92
6343;BME280;3204;42.698;23.298;2023-01-30T08:25:19;95063.72;;;1.58;81.86
6343;BME280;3204;42.698;23.298;2023-01-30T08:27:44;95065.59;;;1.57;82.59
6343;BME280;3204;42.698;23.298;2023-01-30T08:30:10;95071.25;;;1.61;82.32
6343;BME280;3204;42.698;23.298;2023-01-30T08:32:36;95064.91;;;1.67;81.11
6343;BME280;3204;42.698;23.298;2023-01-30T08:35:02;95059.75;;;1.60;81.62
6343;BME280;3204;42.698;23.298;2023-01-30T08:37:27;95053.09;;;1.63;81.55
6343;BME280;3204;42.698;23.298;2023-01-30T08:39:53;95057.31;;;1.59;80.84
6343;BME280;3204;42.698;23.298;2023-01-30T08:42:18;95056.00;;;1.61;81.90
6343;BME280;3204;42.698;23.298;2023-01-30T08:44:44;95046.81;;;1.74;80.43
6343;BME280;3204;42.698;23.298;2023-01-30T08:47:09;95052.59;;;1.66;80.58
6343;BME280;3204;42.698;23.298;2023-01-30T08:49:34;95060.03;;;1.64;80.01
6343;BME280;3204;42.698;23.298;2023-01-30T08:52:00;95043.03;;;1.70;80.49
6343;BME280;3204;42.698;23.298;2023-01-30T08:54:26;95043.84;;;1.75;80.49
6343;BME280;3204;42.698;23.298;2023-01-30T08:56:51;95041.97;;;1.71;80.50
6343;BME280;3204;42.698;23.298;2023-01-30T08:59:17;95042.00;;;1.76;80.78
6343;BME280;3204;42.698;23.298;2023-01-30T09:01:42;95042.88;;;1.81;78.23
6343;BME280;3204;42.698;23.298;2023-01-30T09:04:08;95032.03;;;1.66;78.76
6343;BME280;3204;42.698;23.298;2023-01-30T09:06:33;95034.38;;;1.63;79.44
6343;BME280;3204;42.698;23.298;2023-01-30T09:08:59;95035.97;;;1.64;79.19
6343;BME280;3204;42.698;23.298;2023-01-30T09:11:25;95033.44;;;1.74;79.39
6343;BME280;3204;42.698;23.298;2023-01-30T09:13:50;95033.16;;;1.75;78.58
6343;BME280;3204;42.698;23.298;2023-01-30T09:16:16;95038.56;;;1.80;77.72
6343;BME280;3204;42.698;23.298;2023-01-30T09:18:42;95025.66;;;1.72;78.61
6343;BME280;3204;42.698;23.298;2023-01-30T09:21:10;95024.06;;;1.71;78.85
6343;BME280;3204;42.698;23.298;2023-01-30T09:23:36;95020.28;;;1.67;78.32
6343;BME280;3204;42.698;23.298;2023-01-30T09:26:02;95025.38;;;1.69;78.99
6343;BME280;3204;42.698;23.298;2023-01-30T09:28:28;95027.56;;;1.77;78.98
6343;BME280;3204;42.698;23.298;2023-01-30T09:30:58;95031.41;;;1.86;78.18
6343;BME280;3204;42.698;23.298;2023-01-30T09:33:24;95030.38;;;1.92;77.91
6343;BME280;3204;42.698;23.298;2023-01-30T09:35:50;95024.66;;;1.78;79.03
6343;BME280;3204;42.698;23.298;2023-01-30T09:38:16;95023.84;;;1.78;79.51
6343;BME280;3204;42.698;23.298;2023-01-30T09:43:50;95013.09;;;1.73;78.24
6343;BME280;3204;42.698;23.298;2023-01-30T09:49:14;95002.84;;;1.60;79.68
6343;BME280;3204;42.698;23.298;2023-01-30T09:54:39;95011.38;;;1.88;78.68
6343;BME280;3204;42.698;23.298;2023-01-30T10:00:03;95001.41;;;1.79;78.89
6343;BME280;3204;42.698;23.298;2023-01-30T10:05:39;94994.66;;;1.71;78.23
6343;BME280;3204;42.698;23.298;2023-01-30T10:19:31;94958.28;;;1.70;78.11
6343;BME280;3204;42.698;23.298;2023-01-30T10:24:55;94954.78;;;1.65;76.79
6343;BME280;3204;42.698;23.298;2023-01-30T10:27:24;94942.97;;;1.61;76.84
6343;BME280;3204;42.698;23.298;2023-01-30T10:29:54;94952.66;;;1.67;76.16
6343;BME280;3204;42.698;23.298;2023-01-30T10:32:45;94950.22;;;1.65;76.08
6343;BME280;3204;42.698;23.298;2023-01-30T10:35:16;94946.97;;;1.58;76.18
6343;BME280;3204;42.698;23.298;2023-01-30T10:37:45;94933.94;;;1.67;76.66
6343;BME280;3204;42.698;23.298;2023-01-30T10:40:38;94928.06;;;1.65;76.27
6343;BME280;3204;42.698;23.298;2023-01-30T10:45:47;94915.09;;;1.52;76.13
6343;BME280;3204;42.698;23.298;2023-01-30T10:50:58;94904.28;;;1.37;76.40
6343;BME280;3204;42.698;23.298;2023-01-30T10:53:36;94902.81;;;1.51;77.02
6343;BME280;3204;42.698;23.298;2023-01-30T10:56:19;94897.38;;;1.41;77.66
6343;BME280;3204;42.698;23.298;2023-01-30T11:04:59;94872.22;;;1.68;74.93
6343;BME280;3204;42.698;23.298;2023-01-30T11:07:30;94865.44;;;1.56;74.81
6343;BME280;3204;42.698;23.298;2023-01-30T11:09:57;94863.56;;;1.56;75.78
6343;BME280;3204;42.698;23.298;2023-01-30T11:12:23;94857.47;;;1.61;76.28
6343;BME280;3204;42.698;23.298;2023-01-30T11:15:00;94846.34;;;1.74;75.56
6343;BME280;3204;42.698;23.298;2023-01-30T11:17:33;94837.03;;;1.81;75.50
6343;BME280;3204;42.698;23.298;2023-01-30T11:20:17;94846.09;;;1.80;75.11
6343;BME280;3204;42.698;23.298;2023-01-30T11:23:06;94827.44;;;1.85;74.56
6343;BME280;3204;42.698;23.298;2023-01-30T11:25:49;94826.59;;;1.80;75.11
6343;BME280;3204;42.698;23.298;2023-01-30T11:28:16;94830.34;;;1.79;74.93
6343;BME280;3204;42.698;23.298;2023-01-30T11:30:49;94817.75;;;1.79;74.92
6343;BME280;3204;42.698;23.298;2023-01-30T11:33:17;94822.81;;;1.76;74.73
6343;BME280;3204;42.698;23.298;2023-01-30T11:38:22;94815.25;;;1.63;75.31
6343;BME280;3204;42.698;23.298;2023-01-30T11:40:48;94812.31;;;1.64;75.81
6343;BME280;3204;42.698;23.298;2023-01-30T11:43:14;94802.44;;;1.65;74.83
6343;BME280;3204;42.698;23.298;2023-01-30T11:45:42;94795.66;;;1.47;75.51
6343;BME280;3204;42.698;23.298;2023-01-30T11:48:15;94781.75;;;1.50;75.88
6343;BME280;3204;42.698;23.298;2023-01-30T11:50:45;94776.16;;;1.52;76.68
6343;BME280;3204;42.698;23.298;2023-01-30T11:55:41;94770.91;;;1.67;75.82
6343;BME280;3204;42.698;23.298;2023-01-30T11:58:08;94759.94;;;1.63;76.20
6343;BME280;3204;42.698;23.298;2023-01-30T12:00:46;94759.09;;;1.58;76.23
6343;BME280;3204;42.698;23.298;2023-01-30T12:03:16;94749.25;;;1.63;75.14
6343;BME280;3204;42.698;23.298;2023-01-30T12:05:44;94744.38;;;1.55;76.06
6343;BME280;3204;42.698;23.298;2023-01-30T12:14:37;94741.31;;;1.78;74.90
6343;BME280;3204;42.698;23.298;2023-01-30T12:17:26;94736.72;;;1.69;75.40
6343;BME280;3204;42.698;23.298;2023-01-30T12:20:09;94726.66;;;1.91;75.95
6343;BME280;3204;42.698;23.298;2023-01-30T12:25:38;94723.94;;;1.81;74.87
6343;BME280;3204;42.698;23.298;2023-01-30T12:30:48;94709.63;;;2.07;73.96
6343;BME280;3204;42.698;23.298;2023-01-30T12:33:15;94701.03;;;2.00;73.26
6343;BME280;3204;42.698;23.298;2023-01-30T12:35:48;94703.75;;;2.10;72.90
6343;BME280;3204;42.698;23.298;2023-01-30T12:46:56;94699.22;;;2.10;73.53
6343;BME280;3204;42.698;23.298;2023-01-30T12:55:18;94681.84;;;2.23;72.22
6343;BME280;3204;42.698;23.298;2023-01-30T13:25:14;94667.69;;;2.32;72.94
6343;BME280;3204;42.698;23.298;2023-01-30T13:27:44;94662.88;;;2.29;72.79
6343;BME280;3204;42.698;23.298;2023-01-30T13:30:15;94655.94;;;2.33;72.44
6343;BME280;3204;42.698;23.298;2023-01-30T13:32:50;94662.06;;;2.34;72.16
6343;BME280;3204;42.698;23.298;2023-01-30T13:35:20;94646.56;;;2.26;73.74
6343;BME280;3204;42.698;23.298;2023-01-30T13:37:49;94642.81;;;2.27;72.45
6343;BME280;3204;42.698;23.298;2023-01-30T13:40:26;94640.41;;;2.25;72.35
6343;BME280;3204;42.698;23.298;2023-01-30T13:42:56;94646.78;;;2.09;72.49
6343;BME280;3204;42.698;23.298;2023-01-30T13:45:27;94635.81;;;2.06;73.42
6343;BME280;3204;42.698;23.298;2023-01-30T13:56:16;94627.00;;;2.05;73.34
6343;BME280;3204;42.698;23.298;2023-01-30T14:07:32;94622.97;;;2.03;73.39
6343;BME280;3204;42.698;23.298;2023-01-30T14:10:14;94631.00;;;2.03;73.59
6343;BME280;3204;42.698;23.298;2023-01-30T14:12:43;94630.19;;;2.07;73.61
6343;BME280;3204;42.698;23.298;2023-01-30T14:17:38;94626.19;;;2.05;73.02
6343;BME280;3204;42.698;23.298;2023-01-30T14:20:31;94639.53;;;2.00;73.35
6343;BME280;3204;42.698;23.298;2023-01-30T14:23:04;94632.88;;;2.12;72.14
6343;BME280;3204;42.698;23.298;2023-01-30T14:25:33;94635.00;;;2.00;72.47
6343;BME280;3204;42.698;23.298;2023-01-30T14:30:37;94642.44;;;1.93;72.56
6343;BME280;3204;42.698;23.298;2023-01-30T14:38:36;94638.75;;;2.04;72.50
6343;BME280;3204;42.698;23.298;2023-01-30T14:48:50;94612.25;;;1.93;72.50
6343;BME280;3204;42.698;23.298;2023-01-30T14:54:06;94610.38;;;2.03;72.20
6343;BME280;3204;42.698;23.298;2023-01-30T14:59:26;94596.16;;;1.78;73.04
6343;BME280;3204;42.698;23.298;2023-01-30T15:04:26;94604.97;;;1.68;73.51
6343;BME280;3204;42.698;23.298;2023-01-30T15:06:51;94597.41;;;1.55;73.63
6343;BME280;3204;42.698;23.298;2023-01-30T15:09:21;94590.50;;;1.64;73.31
6343;BME280;3204;42.698;23.298;2023-01-30T15:14:47;94600.34;;;1.49;73.98
6343;BME280;3204;42.698;23.298;2023-01-30T15:20:11;94604.63;;;1.50;74.44
6343;BME280;3204;42.698;23.298;2023-01-30T15:31:18;94598.06;;;1.21;75.79
6343;BME280;3204;42.698;23.298;2023-01-30T15:33:48;94604.69;;;1.13;75.80
6343;BME280;3204;42.698;23.298;2023-01-30T15:38:44;94609.88;;;1.30;75.16
6343;BME280;3204;42.698;23.298;2023-01-30T15:41:10;94622.13;;;1.26;74.06
6343;BME280;3204;42.698;23.298;2023-01-30T15:43:45;94620.56;;;1.35;73.79
6343;BME280;3204;42.698;23.298;2023-01-30T15:49:42;94612.69;;;1.08;75.10
6343;BME280;3204;42.698;23.298;2023-01-30T15:52:14;94606.00;;;1.06;75.58
6343;BME280;3204;42.698;23.298;2023-01-30T15:54:40;94601.22;;;1.08;75.02
6343;BME280;3204;42.698;23.298;2023-01-30T15:57:20;94607.34;;;1.08;74.65
6343;BME280;3204;42.698;23.298;2023-01-30T15:59:47;94598.00;;;1.06;75.17
6343;BME280;3204;42.698;23.298;2023-01-30T16:02:17;94609.28;;;1.18;74.48
6343;BME280;3204;42.698;23.298;2023-01-30T16:04:46;94603.91;;;1.08;74.38
6343;BME280;3204;42.698;23.298;2023-01-30T16:07:25;94602.78;;;0.99;74.98
6343;BME280;3204;42.698;23.298;2023-01-30T16:09:55;94594.81;;;1.09;74.82
6343;BME280;3204;42.698;23.298;2023-01-30T16:12:27;94594.78;;;1.04;74.48
6343;BME280;3204;42.698;23.298;2023-01-30T16:14:53;94595.53;;;0.94;75.54
6343;BME280;3204;42.698;23.298;2023-01-30T16:17:25;94585.13;;;0.93;74.95
6343;BME280;3204;42.698;23.298;2023-01-30T16:19:53;94587.00;;;0.97;74.19
6343;BME280;3204;42.698;23.298;2023-01-30T16:22:20;94586.69;;;0.89;74.61
6343;BME280;3204;42.698;23.298;2023-01-30T16:24:55;94594.19;;;0.97;74.80
6343;BME280;3204;42.698;23.298;2023-01-30T16:27:28;94592.31;;;0.92;75.06
6343;BME280;3204;42.698;23.298;2023-01-30T16:29:57;94589.88;;;0.86;75.42
6343;BME280;3204;42.698;23.298;2023-01-30T16:32:26;94586.63;;;0.79;74.79
6343;BME280;3204;42.698;23.298;2023-01-30T16:37:53;94582.34;;;0.77;75.52
6343;BME280;3204;42.698;23.298;2023-01-30T16:40:24;94585.75;;;0.68;75.65